createdAt,value
2023-05-05T00:06:53.411Z,12.53
2023-05-05T00:16:55.530Z,12.51
2023-05-05T00:26:57.674Z,12.50
2023-05-05T00:36:59.917Z,12.63
2023-05-05T00:47:02.259Z,12.75
2023-05-05T00:57:04.625Z,12.89
2023-05-05T01:07:34.404Z,13.08
2023-05-05T01:17:42.399Z,13.25
2023-05-05T01:28:13.864Z,13.37
2023-05-05T01:38:23.627Z,13.44
2023-05-05T01:48:26.704Z,13.54
2023-05-05T01:58:30.382Z,13.61
2023-05-05T02:08:33.224Z,13.64
2023-05-05T02:18:36.519Z,13.66
2023-05-05T02:29:08.055Z,13.68
2023-05-05T02:39:14.804Z,13.73
2023-05-05T02:49:16.994Z,13.77
2023-05-05T02:59:28.123Z,13.82
2023-05-05T03:09:37.090Z,13.82
2023-05-05T03:19:43.602Z,13.80
2023-05-05T03:29:45.891Z,13.76
2023-05-05T03:39:48.104Z,13.72
2023-05-05T03:49:50.422Z,13.70
2023-05-05T03:59:52.963Z,13.69
2023-05-05T04:09:55.215Z,13.64
2023-05-05T04:19:57.622Z,13.59
2023-05-05T04:29:59.816Z,13.55
2023-05-05T04:40:01.988Z,13.55
2023-05-05T04:50:04.402Z,13.54
2023-05-05T05:00:08.096Z,13.59
2023-05-05T05:10:11.149Z,13.66
2023-05-05T05:20:13.640Z,13.81
2023-05-05T05:30:16.210Z,13.97
2023-05-05T05:40:18.936Z,14.14
2023-05-05T05:50:21.612Z,14.49
2023-05-05T06:00:24.219Z,15.01
2023-05-05T06:10:28.258Z,15.53
2023-05-05T06:20:30.970Z,16.02
2023-05-05T06:30:33.491Z,16.14
2023-05-05T06:40:36.224Z,16.10
2023-05-05T06:50:38.725Z,16.30
2023-05-05T07:00:43.825Z,16.60
2023-05-05T07:10:47.631Z,17.20
2023-05-05T07:20:50.124Z,17.85
2023-05-05T07:30:55.044Z,18.38
2023-05-05T07:40:57.909Z,19.08
2023-05-05T07:51:00.346Z,19.63
2023-05-05T08:01:03.583Z,19.93
2023-05-05T08:11:07.148Z,20.75
2023-05-05T08:21:10.229Z,21.60
2023-05-05T08:31:12.779Z,21.63
2023-05-05T08:41:17.847Z,21.79
2023-05-05T08:51:21.138Z,22.20
2023-05-05T09:01:24.204Z,22.92
2023-05-05T09:11:26.557Z,22.91
2023-05-05T09:21:29.866Z,23.14
2023-05-05T09:31:32.858Z,22.95
2023-05-05T09:41:39.656Z,23.23
2023-05-05T09:51:43.632Z,23.63
2023-05-05T10:01:46.618Z,23.92
2023-05-05T10:11:50.229Z,24.18
2023-05-05T10:21:54.666Z,24.49
2023-05-05T10:31:59.379Z,24.58
2023-05-05T10:42:05.211Z,25.03
2023-05-05T10:52:07.894Z,25.40
2023-05-05T11:02:42.525Z,25.31
2023-05-05T11:12:50.944Z,24.99
2023-05-05T11:23:05.526Z,25.11
2023-05-05T11:33:27.217Z,25.19
2023-05-05T11:43:29.692Z,25.74
2023-05-05T11:53:32.206Z,26.59
2023-05-05T12:03:39.353Z,26.94
2023-05-05T12:13:42.986Z,27.48
2023-05-05T12:23:45.930Z,27.71
2023-05-05T12:33:48.953Z,26.64
2023-05-05T12:44:01.570Z,27.71
2023-05-05T12:54:05.596Z,27.04
2023-05-05T13:04:09.322Z,26.08
2023-05-05T13:14:12.667Z,24.45
2023-05-05T13:24:25.907Z,23.21
2023-05-05T13:34:33.725Z,22.25
2023-05-05T13:44:36.313Z,21.41
2023-05-05T13:54:41.756Z,19.39
2023-05-05T14:04:45.145Z,17.12
2023-05-05T14:14:47.921Z,15.80
2023-05-05T14:24:52.130Z,15.16
2023-05-05T14:34:55.949Z,14.87
2023-05-05T14:44:58.715Z,15.03
2023-05-05T14:55:01.157Z,15.50
2023-05-05T15:05:03.913Z,16.34
2023-05-05T15:15:13.086Z,16.64
2023-05-05T15:25:16.316Z,16.27
2023-05-05T15:35:18.951Z,16.22
2023-05-05T15:45:21.503Z,16.33
2023-05-05T15:55:25.006Z,16.33
2023-05-05T16:05:27.498Z,16.14
2023-05-05T16:15:30.126Z,16.07
2023-05-05T16:25:32.556Z,16.14
2023-05-05T16:35:35.241Z,16.42
2023-05-05T16:45:37.645Z,16.72
2023-05-05T16:55:40.265Z,17.95
2023-05-05T17:05:44.378Z,18.51
2023-05-05T17:15:47.650Z,18.65
2023-05-05T17:25:50.249Z,18.53
2023-05-05T17:35:52.703Z,18.32
2023-05-05T17:45:55.318Z,18.15
2023-05-05T17:55:58.348Z,17.93
2023-05-05T18:06:01.928Z,17.40
2023-05-05T18:16:05.830Z,17.02
2023-05-05T18:26:09.322Z,16.57
2023-05-05T18:36:12.583Z,16.06
2023-05-05T18:46:15.341Z,15.53
2023-05-05T18:56:18.075Z,15.08
2023-05-05T19:06:20.732Z,14.77
2023-05-05T19:16:23.399Z,14.56
2023-05-05T19:26:27.612Z,14.54
2023-05-05T19:36:32.349Z,14.55
2023-05-05T19:46:35.368Z,14.58
2023-05-05T19:56:38.976Z,14.57
2023-05-05T20:06:42.057Z,14.53
2023-05-05T20:16:44.770Z,14.45
2023-05-05T20:26:47.890Z,14.27
2023-05-05T20:36:50.464Z,14.16
2023-05-05T20:46:54.171Z,13.96
2023-05-05T20:56:58.772Z,13.80
2023-05-05T21:07:01.910Z,13.65
2023-05-05T21:17:04.707Z,13.64
2023-05-05T21:27:07.927Z,13.63
2023-05-05T21:37:12.541Z,13.53
2023-05-05T21:47:15.622Z,13.32
2023-05-05T21:57:18.798Z,13.18
2023-05-05T22:07:21.839Z,13.12
2023-05-05T22:17:24.699Z,13.07
2023-05-05T22:27:27.685Z,13.03
2023-05-05T22:37:30.740Z,13.02
2023-05-05T22:47:34.054Z,13.08
2023-05-05T22:57:36.871Z,13.22
2023-05-05T23:07:39.599Z,13.33
2023-05-05T23:17:42.450Z,13.35
2023-05-05T23:27:45.698Z,13.31
2023-05-05T23:37:48.334Z,13.19
2023-05-05T23:47:50.937Z,13.20
2023-05-05T23:57:53.686Z,13.29
